Galvin, WA

9:59 PM PDT on October 21, 2014 (GMT -0700)
Chehalis-Centralia | Change Station
CLOSE
Current Station
Airport
Location: Chehalis,
Elevation: 177 ft
Nearby Weather Stations

Elev 177 ft 46.68 °N, 122.98 °W | Updated 4 minutes ago

Overcast
Overcast
57 °F
Feels Like 57 °F
N
8
Wind Variable Wind from SSW

Today
High -- | Low -- °F
--% Chance of Precip.
Yesterday
High -- | Low -- °F
Precip. -- in
7:38 AM 6:14 PM
Waning Crescent, 3% visible
Pressure 29.79 in
Visibility 10.0 miles
Clouds Few 3000 ft
Scattered Clouds 6500 ft
Overcast 8000 ft
Dew Point 52 °F
Humidity 82%
Rainfall 0.00 in
Snow Depth Not available.
UV 0 out of 12
Pollen .40 out of 12
PM2.5 Good
Flu Activity Sporadic
METAR KCLS 220455Z AUTO 20007KT 10SM -RA FEW030 SCT065 OVC080 14/11 A2979 RMK AO2

More Conditions Fewer Conditions

Pressure 29.79 in
Visibility 10.0 miles
Clouds Few 3000 ft
Scattered Clouds 6500 ft
Overcast 8000 ft
Dew Point 52 °F
Humidity 82%
Rainfall 0.00 in
Snow Depth Not available.
UV 0 out of 12
Pollen .40 out of 12
PM2.5 Good
Flu Activity Sporadic
METAR KCLS 220455Z AUTO 20007KT 10SM -RA FEW030 SCT065 OVC080 14/11 A2979 RMK AO2

More Conditions Fewer Conditions

10-Day Weather Forecast

Almanac

Astronomy

Oct. 21, 2014 Rise Set
Actual Time 7:38 AM PDT 6:14 PM PDT
Civil Twilight 7:07 AM PDT 6:45 PM PDT
Nautical Twilight 6:32 AM PDT 7:20 PM PDT
Astronomical Twilight 5:57 AM PDT 7:55 PM PDT
Moon 5:20 AM PDT (10/21) 5:17 PM PDT (10/21)
Length of Visible Light 11h 37m
Length of Day
10h 35m
Tomorrow will be 3m 10s shorter.
Waning Crescent, 3% of the Moon is Illuminated
Oct 22
Waning Crescent
Oct 23
New
Oct 30
First Quarter
Nov 6
Full
Nov 14
Last Quarter

Yesterday's Extremes

State Highs State Lows

Community

WunderPhotos

Upload Photos

1,763,882 photos uploaded!

Nearby

Air Quality

  Air Quality AQ Index Pollutant
Yesterday Good
PM2.5
Current Good
PM2.5

Snow Depth

Station Depth Elevation
Spirit Lake 0 in 3120 ft
Sheep Canyon 0 in 4030 ft
Swift Creek 0 in 3770 ft
June Lake 0 in 3340 ft
Spencer Meadow 0 in 3400 ft

Earthquake Activity

City Distance Mag. Time & Date
No recent earthquake activity has been reported nearby.
Minimum magnitude displayed is 2.5.

Coastal Water Temperatures

Place Temperature
Port Townsend, WA 53.1 °F
Seattle, WA 55.0 °F
Friday Harbor, WA 51.1 °F
Tacoma, WA 55.0 °F

Nearby Weather Stations